Time;durP1;ratioP1;P1;durP2;ratioP2;P2;SDS_P1;SDS_P2;PMS_P1;PMS_P2;Temp;Humidity;BMP_temperature;BMP_pressure;BME280_temperature;BME280_humidity;BME280_pressure;Samples;Min_cycle;Max_cycle;Signal;HPM_P1;HPM_P2
2021/03/15 00:00:37;;;;;;;3.47;2.60;;;4.60;86.80;;;;;;5028477;28;20228;-81
2021/03/15 00:03:04;;;;;;;5.35;2.30;;;4.60;86.50;;;;;;5035493;28;20218;-80
2021/03/15 00:05:30;;;;;;;4.32;2.90;;;4.60;86.60;;;;;;5035773;28;20200;-80
2021/03/15 00:07:58;;;;;;;8.43;2.55;;;4.70;86.60;;;;;;5034664;28;20292;-80
2021/03/15 00:10:24;;;;;;;5.13;2.33;;;4.70;86.40;;;;;;5026146;28;20204;-80
2021/03/15 00:12:51;;;;;;;2.80;2.05;;;4.60;86.40;;;;;;5027145;28;20208;-79
2021/03/15 00:15:20;;;;;;;4.22;3.25;;;4.70;86.90;;;;;;5032614;28;20188;-80
2021/03/15 00:17:47;;;;;;;5.32;2.30;;;4.60;86.40;;;;;;5032971;28;20228;-80
2021/03/15 00:20:16;;;;;;;4.47;2.50;;;4.60;86.90;;;;;;5033065;28;20211;-79
2021/03/15 00:22:44;;;;;;;4.53;3.17;;;4.70;86.80;;;;;;5032950;28;20223;-80
2021/03/15 00:25:12;;;;;;;3.97;2.72;;;4.70;86.50;;;;;;5027932;28;20208;-79
2021/03/15 00:27:39;;;;;;;2.92;2.50;;;4.70;85.90;;;;;;5029103;23;20243;-79
2021/03/15 00:30:07;;;;;;;6.15;2.78;;;4.70;85.50;;;;;;5017359;28;20258;-79
2021/03/15 00:32:34;;;;;;;6.70;2.63;;;4.60;85.20;;;;;;5017612;28;20219;-79
2021/03/15 00:35:01;;;;;;;6.35;2.53;;;4.60;86.20;;;;;;5026537;28;20208;-79
2021/03/15 00:37:28;;;;;;;4.35;3.03;;;4.60;86.10;;;;;;5035620;28;20223;-79
2021/03/15 00:39:54;;;;;;;4.82;2.90;;;4.60;86.40;;;;;;5049340;28;20290;-80
2021/03/15 00:42:22;;;;;;;4.00;2.83;;;4.50;86.60;;;;;;5049399;28;20199;-79
2021/03/15 00:44:48;;;;;;;3.03;2.75;;;4.50;87.20;;;;;;5032998;28;20544;-80
2021/03/15 00:47:15;;;;;;;7.60;2.90;;;4.50;88.40;;;;;;5014439;28;20224;-80
2021/03/15 00:49:41;;;;;;;7.03;3.00;;;4.50;89.20;;;;;;5014706;28;20261;-79
2021/03/15 00:52:08;;;;;;;6.68;2.72;;;4.50;89.30;;;;;;5015439;28;20218;-80
2021/03/15 00:54:34;;;;;;;4.35;3.15;;;4.40;89.10;;;;;;5018051;28;20223;-79
2021/03/15 00:57:00;;;;;;;5.97;2.67;;;4.40;89.10;;;;;;5015623;28;20232;-80
2021/03/15 00:59:28;;;;;;;5.70;3.00;;;4.40;89.20;;;;;;5014742;28;20220;-79
2021/03/15 01:01:54;;;;;;;3.97;2.70;;;4.40;89.60;;;;;;5014306;28;20250;-80
2021/03/15 01:04:21;;;;;;;4.40;3.05;;;4.40;89.90;;;;;;5014897;28;20626;-79
2021/03/15 01:06:48;;;;;;;3.95;3.47;;;4.40;89.80;;;;;;5013782;28;20603;-80
2021/03/15 01:09:15;;;;;;;5.07;3.33;;;4.30;90.10;;;;;;5013851;28;20204;-80
2021/03/15 01:11:42;;;;;;;6.82;2.83;;;4.30;90.10;;;;;;5013508;28;20543;-79
2021/03/15 01:14:09;;;;;;;11.13;3.67;;;4.30;90.30;;;;;;5013648;28;20203;-80
2021/03/15 01:16:36;;;;;;;5.90;3.70;;;4.30;90.50;;;;;;5014051;28;20254;-80
2021/03/15 01:19:03;;;;;;;5.47;3.30;;;4.40;90.60;;;;;;5015723;28;20718;-80
2021/03/15 01:21:30;;;;;;;6.95;3.60;;;4.40;90.70;;;;;;5013964;28;20211;-81
2021/03/15 01:23:58;;;;;;;6.68;3.30;;;4.40;90.60;;;;;;5017088;28;20211;-79
2021/03/15 01:26:24;;;;;;;8.55;3.60;;;4.40;90.40;;;;;;5017813;28;20238;-80
2021/03/15 01:28:51;;;;;;;7.68;3.58;;;4.40;90.30;;;;;;5015311;28;20580;-80
2021/03/15 01:31:18;;;;;;;5.43;3.28;;;4.50;90.40;;;;;;5015402;28;20204;-79
2021/03/15 01:33:45;;;;;;;12.95;3.90;;;4.60;90.20;;;;;;5014310;28;20235;-80
2021/03/15 01:36:11;;;;;;;6.95;3.80;;;4.50;89.30;;;;;;5015433;28;20231;-81
2021/03/15 01:38:38;;;;;;;7.35;3.88;;;4.60;89.30;;;;;;5015755;28;20228;-79
2021/03/15 01:41:04;;;;;;;7.97;3.90;;;4.60;89.30;;;;;;5013286;28;20266;-79
2021/03/15 01:43:31;;;;;;;6.47;3.72;;;4.60;89.30;;;;;;5013376;28;20208;-80
2021/03/15 01:45:58;;;;;;;8.85;4.10;;;4.60;89.20;;;;;;5012996;28;20211;-80
2021/03/15 01:48:24;;;;;;;5.72;3.42;;;4.70;88.70;;;;;;5013356;28;20266;-79
2021/03/15 01:50:51;;;;;;;4.00;2.90;;;4.70;88.20;;;;;;5013760;28;20208;-80
2021/03/15 01:53:19;;;;;;;9.13;3.97;;;4.70;87.80;;;;;;5013227;28;20254;-80
2021/03/15 01:55:47;;;;;;;4.43;3.20;;;4.70;87.30;;;;;;5013897;28;20664;-79
2021/03/15 01:58:15;;;;;;;7.47;3.65;;;4.70;87.20;;;;;;5013794;28;20707;-80
2021/03/15 02:00:42;;;;;;;4.45;3.58;;;4.80;87.50;;;;;;5014371;28;20226;-79
2021/03/15 02:03:12;;;;;;;8.23;2.92;;;4.80;87.20;;;;;;5016455;28;20212;-79
2021/03/15 02:05:42;;;;;;;6.82;3.67;;;4.80;87.30;;;;;;5024442;28;20200;-79
2021/03/15 02:08:12;;;;;;;8.15;3.70;;;4.80;86.70;;;;;;5023888;28;20227;-79
2021/03/15 02:10:41;;;;;;;8.00;3.97;;;4.80;86.70;;;;;;5020512;28;20230;-80
2021/03/15 02:13:38;;;;;;;4.85;3.17;;;4.80;86.90;;;;;;5018468;28;20199;-79
2021/03/15 02:16:08;;;;;;;8.52;3.03;;;4.90;87.00;;;;;;5028561;28;20208;-79
2021/03/15 02:18:52;;;;;;;4.88;2.95;;;4.80;86.50;;;;;;5031440;28;20263;-78
2021/03/15 02:21:55;;;;;;;5.95;2.80;;;4.80;87.10;;;;;;5036268;28;20184;-79
2021/03/15 02:24:31;;;;;;;3.53;2.80;;;4.80;87.50;;;;;;5033257;28;20223;-80
2021/03/15 02:27:34;;;;;;;6.57;3.03;;;4.80;87.70;;;;;;5031785;28;20243;-80
2021/03/15 02:30:37;;;;;;;4.20;2.80;;;4.90;87.80;;;;;;4970764;29;20213;-79
2021/03/15 02:33:54;;;;;;;3.72;3.20;;;4.90;87.30;;;;;;5021396;28;20184;-80
2021/03/15 02:36:28;;;;;;;5.10;3.15;;;4.90;86.40;;;;;;5016709;28;20286;-80
2021/03/15 02:38:57;;;;;;;5.15;3.30;;;5.00;86.10;;;;;;5020327;28;20200;-79
2021/03/15 02:41:36;;;;;;;10.05;3.28;;;4.90;85.70;;;;;;5017836;28;20223;-79
2021/03/15 02:44:09;;;;;;;3.97;2.72;;;5.00;85.60;;;;;;5017851;28;20251;-79
2021/03/15 02:46:40;;;;;;;4.75;2.97;;;5.00;85.50;;;;;;5021770;28;20726;-80
2021/03/15 02:49:13;;;;;;;4.10;2.80;;;5.10;84.90;;;;;;5020725;28;20208;-81
2021/03/15 02:51:43;;;;;;;2.92;2.63;;;5.10;83.40;;;;;;5017571;28;20691;-79
2021/03/15 02:54:15;;;;;;;5.85;2.50;;;5.20;83.00;;;;;;5017716;28;20216;-80
2021/03/15 02:56:49;;;;;;;7.10;2.60;;;5.20;81.60;;;;;;5020217;28;20232;-79
2021/03/15 02:59:18;;;;;;;6.45;2.95;;;5.20;82.30;;;;;;5030803;28;20227;-80
2021/03/15 03:01:49;;;;;;;3.88;2.38;;;5.30;81.70;;;;;;5031383;28;20635;-79
2021/03/15 03:04:17;;;;;;;3.78;2.45;;;5.30;80.30;;;;;;5031926;28;20200;-80
2021/03/15 03:06:46;;;;;;;3.78;2.33;;;5.30;79.80;;;;;;5032422;28;20251;-81
2021/03/15 03:09:15;;;;;;;6.13;2.17;;;5.40;79.80;;;;;;5032046;28;20208;-79
2021/03/15 03:11:46;;;;;;;3.35;1.80;;;5.40;79.10;;;;;;5033035;28;20215;-80
2021/03/15 03:14:14;;;;;;;9.07;2.58;;;5.40;79.10;;;;;;5032405;28;20226;-79
2021/03/15 03:16:41;;;;;;;3.90;1.98;;;5.40;78.80;;;;;;5030258;28;20263;-80
2021/03/15 03:19:11;;;;;;;5.13;2.20;;;5.40;78.90;;;;;;5026922;28;20223;-79
2021/03/15 03:21:39;;;;;;;4.55;2.80;;;5.30;78.90;;;;;;5027199;28;20233;-79
2021/03/15 03:24:09;;;;;;;3.70;2.30;;;5.30;79.50;;;;;;5026343;28;20208;-79
2021/03/15 03:26:37;;;;;;;6.85;2.60;;;5.30;80.00;;;;;;5024438;28;20299;-79
2021/03/15 03:29:06;;;;;;;5.30;2.30;;;5.30;80.40;;;;;;5025531;28;20208;-79
2021/03/15 03:31:35;;;;;;;2.85;2.50;;;5.30;80.70;;;;;;5022564;28;20266;-80
2021/03/15 03:34:02;;;;;;;3.53;2.45;;;5.30;80.90;;;;;;5022691;28;20208;-78
2021/03/15 03:36:28;;;;;;;4.03;2.15;;;5.30;81.70;;;;;;5017309;28;20211;-79
2021/03/15 03:38:56;;;;;;;4.15;2.17;;;5.30;81.70;;;;;;5014462;28;20316;-79
2021/03/15 03:41:24;;;;;;;3.17;2.63;;;5.30;81.70;;;;;;5015190;28;20349;-79
2021/03/15 03:43:50;;;;;;;4.55;2.30;;;5.30;81.70;;;;;;5015408;28;20208;-79
2021/03/15 03:46:17;;;;;;;4.15;2.40;;;5.30;81.70;;;;;;5015113;28;20238;-79
2021/03/15 03:48:43;;;;;;;5.80;2.75;;;5.30;81.70;;;;;;5014708;28;20731;-79
2021/03/15 03:51:10;;;;;;;2.92;2.25;;;5.30;81.70;;;;;;5014178;28;20215;-79
2021/03/15 03:53:42;;;;;;;4.20;2.25;;;5.30;80.60;;;;;;5014055;28;20235;-79
2021/03/15 03:56:12;;;;;;;5.18;2.25;;;5.30;80.30;;;;;;5014642;28;20215;-79
2021/03/15 03:58:43;;;;;;;3.88;2.05;;;5.30;80.30;;;;;;5017441;28;20231;-79
2021/03/15 04:01:12;;;;;;;5.65;2.25;;;5.20;79.80;;;;;;5015553;28;20208;-78
2021/03/15 04:03:40;;;;;;;3.60;2.38;;;5.20;79.90;;;;;;5015919;28;20212;-79
2021/03/15 04:06:11;;;;;;;4.55;2.15;;;5.30;80.00;;;;;;5021409;28;20291;-79
2021/03/15 04:08:43;;;;;;;4.40;2.10;;;5.30;79.90;;;;;;5018760;28;20258;-80
2021/03/15 04:11:11;;;;;;;3.22;2.30;;;5.30;80.40;;;;;;5015231;28;20215;-79
2021/03/15 04:13:40;;;;;;;4.47;2.58;;;5.30;81.50;;;;;;5014277;28;20201;-78
2021/03/15 04:16:10;;;;;;;4.97;2.63;;;5.20;81.60;;;;;;5014657;28;20200;-80
2021/03/15 04:18:39;;;;;;;2.60;2.03;;;5.20;81.60;;;;;;5015693;28;20274;-80
2021/03/15 04:21:07;;;;;;;5.25;2.97;;;5.10;82.80;;;;;;5020621;28;20233;-79
2021/03/15 04:23:38;;;;;;;4.28;2.10;;;5.10;84.20;;;;;;5014331;28;20212;-78
2021/03/15 04:26:05;;;;;;;5.00;2.22;;;5.10;85.10;;;;;;5013897;28;20226;-79
2021/03/15 04:28:35;;;;;;;3.50;2.38;;;5.10;85.80;;;;;;5015182;28;20297;-79
2021/03/15 04:31:02;;;;;;;3.05;2.00;;;5.10;87.40;;;;;;5014900;28;20258;-80
2021/03/15 04:33:30;;;;;;;5.63;2.53;;;5.00;89.00;;;;;;5014742;28;20652;-79
2021/03/15 04:35:57;;;;;;;5.50;2.10;;;4.90;90.00;;;;;;5014613;28;20293;-79
2021/03/15 04:38:24;;;;;;;4.43;2.80;;;4.90;90.80;;;;;;5014720;28;20235;-79
2021/03/15 04:40:52;;;;;;;3.88;2.95;;;4.90;91.60;;;;;;5014945;28;20250;-79
2021/03/15 04:43:20;;;;;;;3.85;2.55;;;4.90;91.90;;;;;;5014087;28;20212;-80
2021/03/15 04:45:49;;;;;;;4.07;2.75;;;4.90;92.50;;;;;;5024221;28;20258;-78
2021/03/15 04:48:19;;;;;;;5.50;2.55;;;4.90;93.10;;;;;;5029528;28;20224;-78
2021/03/15 04:50:51;;;;;;;4.32;2.95;;;4.90;93.40;;;;;;5019730;28;20184;-79
2021/03/15 04:53:19;;;;;;;9.32;3.15;;;4.80;93.30;;;;;;5014108;28;20212;-77
2021/03/15 04:55:45;;;;;;;5.63;2.58;;;4.90;94.10;;;;;;5013446;28;20567;-77
2021/03/15 04:58:14;;;;;;;5.50;3.28;;;4.90;94.60;;;;;;5012752;28;20235;-78
2021/03/15 05:00:44;;;;;;;5.30;2.60;;;4.90;94.90;;;;;;5012816;28;20559;-78
2021/03/15 05:03:14;;;;;;;5.35;2.80;;;4.80;95.20;;;;;;5015281;28;20203;-78
2021/03/15 05:05:41;;;;;;;6.00;2.90;;;4.80;95.60;;;;;;5013503;28;20212;-80
2021/03/15 05:08:14;;;;;;;4.57;2.97;;;4.90;95.90;;;;;;5019087;28;20255;-78
2021/03/15 05:10:40;;;;;;;6.30;3.35;;;4.80;96.20;;;;;;5017449;28;20224;-78
2021/03/15 05:13:07;;;;;;;4.43;3.00;;;4.80;96.60;;;;;;5012780;28;20231;-78
2021/03/15 05:15:36;;;;;;;4.05;2.30;;;4.80;96.80;;;;;;5012906;28;20279;-78
2021/03/15 05:18:05;;;;;;;5.40;2.53;;;4.90;96.90;;;;;;5013283;28;20304;-79
2021/03/15 05:20:35;;;;;;;4.63;2.17;;;4.80;96.80;;;;;;5012725;28;20650;-78
2021/03/15 05:23:02;;;;;;;5.00;2.35;;;4.70;96.40;;;;;;5012590;28;20235;-78
2021/03/15 05:25:31;;;;;;;5.25;2.30;;;4.70;96.30;;;;;;5012988;28;20646;-78
2021/03/15 05:27:59;;;;;;;5.22;2.55;;;4.70;96.80;;;;;;5012740;28;20323;-76
2021/03/15 05:30:28;;;;;;;2.75;1.92;;;4.70;96.80;;;;;;5013073;28;20208;-77
2021/03/15 05:32:56;;;;;;;3.45;2.17;;;4.70;96.80;;;;;;5012750;28;20691;-77
2021/03/15 05:35:24;;;;;;;6.15;3.00;;;4.70;96.00;;;;;;5013536;28;20215;-77
2021/03/15 05:37:51;;;;;;;4.40;2.10;;;4.60;96.00;;;;;;5014402;28;20263;-78
2021/03/15 05:40:19;;;;;;;4.35;2.38;;;4.60;95.80;;;;;;5017536;28;20227;-78
2021/03/15 05:42:58;;;;;;;2.55;2.28;;;4.60;95.80;;;;;;5017357;28;20370;-77
2021/03/15 05:45:27;;;;;;;4.88;2.28;;;4.60;96.00;;;;;;5019331;28;20506;-78
2021/03/15 05:48:26;;;;;;;5.22;2.17;;;4.60;95.80;;;;;;5024785;28;20238;-79
2021/03/15 05:51:14;;;;;;;3.83;2.70;;;4.60;95.70;;;;;;5025658;28;20192;-78
2021/03/15 05:54:12;;;;;;;3.33;2.22;;;4.50;95.70;;;;;;5026831;28;20290;-79
2021/03/15 05:56:59;;;;;;;3.63;2.42;;;4.50;95.90;;;;;;5025187;28;20295;-78
2021/03/15 06:00:12;;;;;;;2.65;2.22;;;4.50;95.70;;;;;;5025843;28;20224;-78
2021/03/15 06:03:33;;;;;;;2.65;1.52;;;4.50;95.70;;;;;;4966333;29;20233;-79
2021/03/15 06:06:03;;;;;;;3.45;1.67;;;4.50;95.50;;;;;;4932530;29;20217;-78
2021/03/15 06:08:35;;;;;;;4.03;2.03;;;4.40;95.40;;;;;;4964788;29;20225;-78
2021/03/15 06:11:06;;;;;;;6.03;1.90;;;4.40;95.40;;;;;;4961113;29;20277;-79
2021/03/15 06:13:33;;;;;;;2.80;1.73;;;4.40;95.60;;;;;;4961182;29;20235;-79
2021/03/15 06:16:02;;;;;;;3.83;2.10;;;4.50;95.90;;;;;;4961547;28;20217;-78
2021/03/15 06:18:30;;;;;;;2.38;2.17;;;4.50;96.30;;;;;;4960254;28;20695;-78
2021/03/15 06:20:57;;;;;;;4.50;1.92;;;4.50;96.20;;;;;;4959597;29;20234;-78
2021/03/15 06:23:24;;;;;;;7.43;3.35;;;4.50;96.70;;;;;;4959763;29;20760;-78
2021/03/15 06:25:53;;;;;;;2.28;2.08;;;4.60;96.70;;;;;;4959912;28;20297;-79
2021/03/15 06:28:20;;;;;;;3.55;2.50;;;4.60;96.70;;;;;;4957613;29;20269;-77
2021/03/15 06:30:49;;;;;;;3.20;2.35;;;4.60;96.80;;;;;;4956458;29;20205;-78
2021/03/15 06:33:17;;;;;;;2.97;2.00;;;4.60;96.80;;;;;;4987485;28;20270;-78
2021/03/15 06:35:45;;;;;;;3.30;2.22;;;4.60;96.90;;;;;;5020501;28;20594;-77
2021/03/15 06:38:12;;;;;;;4.10;2.25;;;4.60;97.10;;;;;;5019672;28;20239;-79
2021/03/15 06:40:41;;;;;;;2.83;2.00;;;4.60;97.50;;;;;;5020684;28;20587;-78
2021/03/15 06:43:11;;;;;;;2.70;2.38;;;4.60;97.90;;;;;;5026065;28;20211;-78
2021/03/15 06:45:38;;;;;;;2.55;2.35;;;4.60;97.90;;;;;;5027204;28;20203;-77
2021/03/15 06:48:06;;;;;;;3.17;2.30;;;4.50;98.00;;;;;;5029355;28;20231;-78
2021/03/15 06:50:33;;;;;;;3.10;2.70;;;4.50;98.00;;;;;;5026053;28;20203;-77
2021/03/15 06:53:01;;;;;;;4.22;2.40;;;4.50;98.40;;;;;;5027890;28;20750;-78
2021/03/15 06:55:31;;;;;;;2.63;2.00;;;4.50;98.50;;;;;;5026726;28;20226;-79
2021/03/15 06:57:58;;;;;;;2.60;2.40;;;4.50;98.70;;;;;;5025383;28;20228;-80
2021/03/15 07:00:26;;;;;;;2.50;2.10;;;4.60;99.10;;;;;;5041235;28;20230;-82
2021/03/15 07:03:00;;;;;;;7.63;2.22;;;4.50;99.10;;;;;;5026733;28;20196;-79
2021/03/15 07:05:28;;;;;;;4.20;2.10;;;4.60;99.50;;;;;;5022097;28;20223;-79
2021/03/15 07:07:58;;;;;;;3.70;2.63;;;4.60;99.60;;;;;;5022583;28;20232;-79
2021/03/15 07:10:26;;;;;;;3.97;2.53;;;4.60;99.60;;;;;;5027705;28;20281;-79
2021/03/15 07:13:10;;;;;;;3.42;2.20;;;4.60;99.90;;;;;;5029114;28;20215;-78
2021/03/15 07:15:37;;;;;;;5.25;2.75;;;4.70;99.90;;;;;;5031158;28;20188;-80
2021/03/15 07:18:22;;;;;;;2.88;2.10;;;4.70;99.90;;;;;;5046263;28;20621;-80
2021/03/15 07:20:51;;;;;;;4.53;2.15;;;4.80;99.90;;;;;;5041754;28;20243;-80
2021/03/15 07:23:38;;;;;;;3.83;2.35;;;4.90;99.90;;;;;;5041652;28;20577;-79
2021/03/15 07:26:11;;;;;;;2.78;2.05;;;4.90;99.80;;;;;;5046302;28;20191;-81
2021/03/15 07:28:38;;;;;;;3.78;2.70;;;4.90;99.50;;;;;;5058374;28;20246;-80
2021/03/15 07:31:23;;;;;;;3.28;2.33;;;4.90;99.20;;;;;;5055610;28;20230;-80
2021/03/15 07:34:19;;;;;;;4.20;1.80;;;4.90;98.90;;;;;;5058290;28;20180;-79
2021/03/15 07:36:55;;;;;;;2.88;2.13;;;4.90;98.50;;;;;;5057143;28;20234;-80
2021/03/15 07:39:24;;;;;;;1.95;1.67;;;4.90;98.20;;;;;;5055867;28;20202;-82
2021/03/15 07:41:52;;;;;;;11.52;2.55;;;4.90;98.20;;;;;;5053284;28;20246;-79
2021/03/15 07:44:21;;;;;;;4.40;2.03;;;5.00;98.10;;;;;;5039679;28;20210;-80
2021/03/15 07:46:49;;;;;;;3.10;2.40;;;5.00;97.70;;;;;;5039283;28;20218;-79
2021/03/15 07:49:28;;;;;;;2.40;2.20;;;5.10;97.90;;;;;;5038645;28;20215;-79
2021/03/15 07:51:58;;;;;;;2.05;1.95;;;5.10;97.70;;;;;;5038311;28;20725;-78
2021/03/15 07:54:27;;;;;;;2.95;1.85;;;5.10;97.60;;;;;;5038480;28;20231;-81
2021/03/15 07:57:13;;;;;;;2.20;1.55;;;5.10;97.20;;;;;;5038564;28;20229;-81
2021/03/15 07:59:41;;;;;;;2.55;1.90;;;5.20;97.00;;;;;;5037180;28;20651;-80
2021/03/15 08:02:15;;;;;;;1.50;1.40;;;5.30;97.00;;;;;;5043261;28;20223;-82
2021/03/15 08:04:52;;;;;;;2.05;1.40;;;5.30;96.00;;;;;;5028975;28;20186;-82
2021/03/15 08:07:25;;;;;;;1.50;1.40;;;5.40;95.90;;;;;;5027346;28;20231;-82
2021/03/15 08:10:00;;;;;;;2.45;1.95;;;5.40;95.50;;;;;;5037769;28;20223;-82
2021/03/15 08:12:35;;;;;;;2.20;2.00;;;5.50;95.40;;;;;;5031628;28;20203;-81
2021/03/15 08:15:10;;;;;;;2.38;1.80;;;5.50;95.30;;;;;;5037823;28;20228;-82
2021/03/15 08:17:43;;;;;;;2.05;1.80;;;5.40;95.30;;;;;;5038929;28;20270;-81
2021/03/15 08:20:14;;;;;;;2.30;2.10;;;5.50;95.40;;;;;;5039115;28;20239;-82
2021/03/15 08:22:52;;;;;;;4.35;2.58;;;5.50;95.10;;;;;;5038799;28;20243;-82
2021/03/15 08:28:46;;;;;;;3.25;2.20;;;5.60;94.60;;;;;;5034244;28;20219;-82
2021/03/15 08:31:21;;;;;;;3.42;2.00;;;5.60;94.00;;;;;;5030131;28;20200;-83
2021/03/15 08:33:55;;;;;;;2.67;2.28;;;5.60;93.60;;;;;;5025849;28;20208;-82
2021/03/15 08:39:40;;;;;;;2.65;2.10;;;5.80;93.70;;;;;;5034797;28;20255;-81
2021/03/15 08:42:24;;;;;;;4.35;2.40;;;6.00;93.20;;;;;;5037882;28;20214;-81
2021/03/15 08:44:52;;;;;;;3.58;2.10;;;6.00;92.30;;;;;;5030110;28;20212;-81
2021/03/15 08:47:50;;;;;;;2.33;1.88;;;6.00;91.20;;;;;;5006506;28;20615;-81
2021/03/15 08:50:46;;;;;;;1.75;1.50;;;6.00;90.80;;;;;;5005321;28;20214;-81
2021/03/15 08:53:54;;;;;;;2.05;1.85;;;5.90;90.10;;;;;;4974624;28;20691;-81
2021/03/15 08:56:45;;;;;;;2.85;1.75;;;6.00;90.20;;;;;;5022480;28;20215;-81
2021/03/15 08:59:15;;;;;;;3.25;1.83;;;6.00;90.20;;;;;;5027316;28;20196;-82
2021/03/15 09:01:50;;;;;;;5.35;2.70;;;6.00;90.10;;;;;;5023654;28;20249;-80
2021/03/15 09:04:33;;;;;;;3.80;2.08;;;6.00;90.20;;;;;;5027017;28;20225;-81
2021/03/15 09:07:00;;;;;;;3.08;2.38;;;6.00;90.20;;;;;;5029785;28;20261;-81
2021/03/15 09:09:31;;;;;;;4.88;2.35;;;6.00;90.30;;;;;;5023947;28;20242;-81
2021/03/15 09:12:01;;;;;;;4.45;2.08;;;6.10;90.20;;;;;;5021145;28;20208;-80
2021/03/15 09:15:05;;;;;;;3.00;2.05;;;6.20;90.30;;;;;;5023652;28;20188;-80
2021/03/15 09:17:37;;;;;;;3.13;2.20;;;6.30;88.80;;;;;;4966261;29;20230;-80
2021/03/15 09:20:25;;;;;;;2.17;2.00;;;6.30;89.60;;;;;;4972119;29;20237;-81
2021/03/15 09:23:14;;;;;;;2.78;1.70;;;6.30;87.60;;;;;;4974890;28;20198;-81
2021/03/15 09:25:41;;;;;;;2.40;1.90;;;6.20;88.20;;;;;;4978493;28;20213;-80
2021/03/15 09:28:12;;;;;;;2.80;2.22;;;6.10;89.00;;;;;;4985293;28;20236;-80
2021/03/15 09:30:42;;;;;;;2.65;1.95;;;6.20;90.10;;;;;;4986062;28;20189;-81
2021/03/15 09:33:10;;;;;;;2.95;2.20;;;6.20;89.60;;;;;;4986565;28;20209;-81
2021/03/15 09:35:40;;;;;;;3.42;2.40;;;6.20;90.00;;;;;;4972098;28;20216;-81
2021/03/15 09:38:09;;;;;;;3.05;2.38;;;6.20;89.80;;;;;;4987357;28;20229;-81
2021/03/15 09:40:38;;;;;;;6.55;1.92;;;6.10;90.20;;;;;;4989292;28;20238;-81
2021/03/15 09:43:09;;;;;;;4.22;2.08;;;6.10;90.20;;;;;;4992917;28;20232;-81
2021/03/15 09:45:39;;;;;;;2.72;2.13;;;6.10;90.20;;;;;;4990572;28;20204;-82
2021/03/15 09:48:20;;;;;;;2.58;2.38;;;6.20;90.80;;;;;;4984895;28;20255;-81
2021/03/15 09:50:57;;;;;;;3.47;2.50;;;6.20;90.70;;;;;;4980972;28;20295;-80
2021/03/15 09:53:31;;;;;;;3.20;2.20;;;6.20;90.80;;;;;;4972449;28;20271;-81
2021/03/15 09:56:08;;;;;;;2.30;2.10;;;6.30;91.10;;;;;;4997612;28;20255;-82
2021/03/15 09:58:36;;;;;;;3.42;2.28;;;6.30;90.70;;;;;;4997372;28;20223;-82
2021/03/15 10:01:11;;;;;;;3.03;2.00;;;6.30;90.70;;;;;;4997816;28;20244;-80
2021/03/15 10:09:40;;;;;;;2.45;1.83;;;6.40;90.30;;;;;;5510901;23;20238;-83
2021/03/15 10:12:22;;;;;;;2.30;1.95;;;6.40;90.30;;;;;;5037716;28;20200;-83
2021/03/15 10:15:13;;;;;;;5.15;2.40;;;6.60;90.40;;;;;;5038131;28;20231;-83
2021/03/15 10:55:13;;;;;;;2.75;2.50;;;9.50;69.90;;;;;;5038013;28;20208;-80
2021/03/15 10:58:04;;;;;;;3.92;2.42;;;9.80;70.30;;;;;;5050854;28;20215;-82
2021/03/15 11:00:40;;;;;;;3.17;2.47;;;9.80;62.30;;;;;;5057601;28;20223;-83
2021/03/15 11:03:21;;;;;;;2.00;1.60;;;9.80;61.00;;;;;;5055649;28;20197;-80
2021/03/15 11:06:17;;;;;;;2.50;1.80;;;9.70;59.40;;;;;;5039566;28;20222;-81
2021/03/15 12:04:09;;;;;;;1.27;1.17;;;9.40;45.30;;;;;;4991808;28;20207;-81
2021/03/15 12:06:49;;;;;;;1.88;1.08;;;9.50;45.00;;;;;;4995747;28;20224;-80
2021/03/15 12:09:36;;;;;;;1.52;0.80;;;9.60;42.60;;;;;;5011146;28;20235;-81
2021/03/15 12:12:14;;;;;;;0.95;0.90;;;9.70;40.20;;;;;;5015421;28;20382;-81
2021/03/15 12:17:57;;;;;;;0.80;0.80;;;9.50;40.10;;;;;;5018282;28;20273;-83
2021/03/15 12:20:35;;;;;;;1.17;1.10;;;9.30;39.90;;;;;;4994274;28;20212;-81
2021/03/15 12:23:30;;;;;;;0.80;0.80;;;9.40;40.90;;;;;;5038272;28;20199;-81
2021/03/15 23:15:29;;;;;;;5.38;3.65;;;6.40;54.60;;;;;;4884332;29;20208;-79
2021/03/15 23:21:17;;;;;;;5.38;3.00;;;6.30;54.90;;;;;;4880908;29;20233;-81
2021/03/15 23:24:01;;;;;;;7.97;3.28;;;6.30;54.50;;;;;;4877377;29;20248;-81
2021/03/15 23:26:32;;;;;;;6.63;3.40;;;6.30;54.60;;;;;;4875391;29;20213;-81
2021/03/15 23:29:09;;;;;;;5.03;2.80;;;6.30;54.50;;;;;;4878521;29;20221;-81
2021/03/15 23:31:43;;;;;;;9.30;3.60;;;6.20;54.70;;;;;;4849759;29;20246;-79
2021/03/15 23:34:39;;;;;;;5.30;3.05;;;6.30;54.70;;;;;;4882738;29;20217;-80
2021/03/15 23:37:16;;;;;;;6.55;3.00;;;6.30;54.70;;;;;;4883642;29;20224;-80
2021/03/15 23:40:12;;;;;;;3.67;2.88;;;6.20;54.70;;;;;;4883600;29;20213;-80
2021/03/15 23:45:53;;;;;;;3.95;2.85;;;6.20;54.70;;;;;;4884405;29;20229;-81
2021/03/15 23:48:35;;;;;;;4.78;4.05;;;6.20;54.60;;;;;;4879560;29;20290;-80
2021/03/15 23:51:05;;;;;;;2.90;2.60;;;6.20;54.60;;;;;;4888374;29;20203;-80
2021/03/15 23:56:25;;;;;;;4.70;3.45;;;6.10;54.80;;;;;;4920809;29;20215;-81
2021/03/15 23:58:56;;;;;;;7.03;3.25;;;6.10;54.90;;;;;;4903926;29;20276;-81
